sensor_id;sensor_type;location;lat;lon;timestamp;temperature;humidity
65046;DHT22;54657;52.022;5.534;2023-11-21T00:01:35;10.30;99.00
65046;DHT22;54657;52.022;5.534;2023-11-21T00:04:01;10.40;99.00
65046;DHT22;54657;52.022;5.534;2023-11-21T00:06:27;10.40;98.90
65046;DHT22;54657;52.022;5.534;2023-11-21T00:08:53;10.40;98.80
65046;DHT22;54657;52.022;5.534;2023-11-21T00:11:18;10.40;98.70
65046;DHT22;54657;52.022;5.534;2023-11-21T00:13:44;10.40;98.70
65046;DHT22;54657;52.022;5.534;2023-11-21T00:16:10;10.30;98.70
65046;DHT22;54657;52.022;5.534;2023-11-21T00:18:36;10.20;98.80
65046;DHT22;54657;52.022;5.534;2023-11-21T00:21:02;10.20;98.70
65046;DHT22;54657;52.022;5.534;2023-11-21T00:23:28;10.20;98.80
65046;DHT22;54657;52.022;5.534;2023-11-21T00:25:54;10.20;98.80
65046;DHT22;54657;52.022;5.534;2023-11-21T00:28:20;10.10;98.90
65046;DHT22;54657;52.022;5.534;2023-11-21T00:30:45;10.00;98.90
65046;DHT22;54657;52.022;5.534;2023-11-21T00:33:11;10.10;99.00
65046;DHT22;54657;52.022;5.534;2023-11-21T00:35:36;10.00;98.90
65046;DHT22;54657;52.022;5.534;2023-11-21T00:38:02;10.10;98.80
65046;DHT22;54657;52.022;5.534;2023-11-21T00:40:28;10.10;98.70
65046;DHT22;54657;52.022;5.534;2023-11-21T00:42:54;10.10;98.70
65046;DHT22;54657;52.022;5.534;2023-11-21T00:45:21;10.00;98.70
65046;DHT22;54657;52.022;5.534;2023-11-21T00:47:46;10.00;98.70
65046;DHT22;54657;52.022;5.534;2023-11-21T00:50:12;9.90;98.80
65046;DHT22;54657;52.022;5.534;2023-11-21T00:52:38;9.90;98.70
65046;DHT22;54657;52.022;5.534;2023-11-21T00:55:05;10.00;98.70
65046;DHT22;54657;52.022;5.534;2023-11-21T00:57:32;9.90;98.70
65046;DHT22;54657;52.022;5.534;2023-11-21T00:59:58;9.90;98.80
65046;DHT22;54657;52.022;5.534;2023-11-21T01:02:24;9.80;98.80
65046;DHT22;54657;52.022;5.534;2023-11-21T01:04:50;9.90;98.80
65046;DHT22;54657;52.022;5.534;2023-11-21T01:07:16;9.90;98.80
65046;DHT22;54657;52.022;5.534;2023-11-21T01:09:41;9.90;98.80
65046;DHT22;54657;52.022;5.534;2023-11-21T01:12:07;9.80;98.80
65046;DHT22;54657;52.022;5.534;2023-11-21T01:14:32;9.80;98.80
65046;DHT22;54657;52.022;5.534;2023-11-21T01:16:58;9.80;98.80
65046;DHT22;54657;52.022;5.534;2023-11-21T01:19:24;9.80;98.80
65046;DHT22;54657;52.022;5.534;2023-11-21T01:21:49;9.80;98.80
65046;DHT22;54657;52.022;5.534;2023-11-21T01:24:15;9.80;98.90
65046;DHT22;54657;52.022;5.534;2023-11-21T01:26:40;9.70;98.90
65046;DHT22;54657;52.022;5.534;2023-11-21T01:29:06;9.70;99.00
65046;DHT22;54657;52.022;5.534;2023-11-21T01:31:31;9.80;98.90
65046;DHT22;54657;52.022;5.534;2023-11-21T01:33:57;9.80;98.90
65046;DHT22;54657;52.022;5.534;2023-11-21T01:36:22;9.70;98.80
65046;DHT22;54657;52.022;5.534;2023-11-21T01:38:48;9.80;98.90
65046;DHT22;54657;52.022;5.534;2023-11-21T01:41:14;9.80;98.90
65046;DHT22;54657;52.022;5.534;2023-11-21T01:43:40;9.80;98.90
65046;DHT22;54657;52.022;5.534;2023-11-21T01:46:06;9.70;98.90
65046;DHT22;54657;52.022;5.534;2023-11-21T01:48:33;9.70;98.90
65046;DHT22;54657;52.022;5.534;2023-11-21T01:51:00;9.70;98.90
65046;DHT22;54657;52.022;5.534;2023-11-21T01:53:25;9.70;98.80
65046;DHT22;54657;52.022;5.534;2023-11-21T01:55:51;9.80;98.80
65046;DHT22;54657;52.022;5.534;2023-11-21T01:58:19;9.80;98.70
65046;DHT22;54657;52.022;5.534;2023-11-21T02:00:45;9.80;98.70
65046;DHT22;54657;52.022;5.534;2023-11-21T02:03:10;9.80;98.70
65046;DHT22;54657;52.022;5.534;2023-11-21T02:05:36;9.80;98.80
65046;DHT22;54657;52.022;5.534;2023-11-21T02:08:02;9.80;98.80
65046;DHT22;54657;52.022;5.534;2023-11-21T02:10:28;9.80;99.10
65046;DHT22;54657;52.022;5.534;2023-11-21T02:12:55;9.80;98.80
65046;DHT22;54657;52.022;5.534;2023-11-21T02:15:21;9.80;98.90
65046;DHT22;54657;52.022;5.534;2023-11-21T02:17:49;9.80;98.90
65046;DHT22;54657;52.022;5.534;2023-11-21T02:20:17;9.80;98.90
65046;DHT22;54657;52.022;5.534;2023-11-21T02:22:48;9.80;99.20
65046;DHT22;54657;52.022;5.534;2023-11-21T02:25:14;9.80;98.90
65046;DHT22;54657;52.022;5.534;2023-11-21T02:27:39;9.80;99.00
65046;DHT22;54657;52.022;5.534;2023-11-21T02:30:05;9.80;99.10
65046;DHT22;54657;52.022;5.534;2023-11-21T02:32:33;9.80;99.10
65046;DHT22;54657;52.022;5.534;2023-11-21T02:35:00;9.90;99.00
65046;DHT22;54657;52.022;5.534;2023-11-21T02:37:33;10.00;99.00
65046;DHT22;54657;52.022;5.534;2023-11-21T02:39:58;10.00;98.90
65046;DHT22;54657;52.022;5.534;2023-11-21T02:42:24;10.00;98.90
65046;DHT22;54657;52.022;5.534;2023-11-21T02:44:50;10.10;98.90
65046;DHT22;54657;52.022;5.534;2023-11-21T02:47:16;10.10;98.80
65046;DHT22;54657;52.022;5.534;2023-11-21T02:49:42;10.10;98.80
65046;DHT22;54657;52.022;5.534;2023-11-21T02:52:07;10.10;98.80
65046;DHT22;54657;52.022;5.534;2023-11-21T02:54:34;10.20;98.90
65046;DHT22;54657;52.022;5.534;2023-11-21T02:57:02;10.20;98.90
65046;DHT22;54657;52.022;5.534;2023-11-21T02:59:27;10.20;98.90
65046;DHT22;54657;52.022;5.534;2023-11-21T03:01:53;10.30;98.80
65046;DHT22;54657;52.022;5.534;2023-11-21T03:04:18;10.30;98.80
65046;DHT22;54657;52.022;5.534;2023-11-21T03:06:45;10.40;98.80
65046;DHT22;54657;52.022;5.534;2023-11-21T03:09:11;10.40;98.80
65046;DHT22;54657;52.022;5.534;2023-11-21T03:11:39;10.40;98.80
65046;DHT22;54657;52.022;5.534;2023-11-21T03:14:05;10.40;98.90
65046;DHT22;54657;52.022;5.534;2023-11-21T03:16:32;10.40;98.90
65046;DHT22;54657;52.022;5.534;2023-11-21T03:18:58;10.40;98.90
65046;DHT22;54657;52.022;5.534;2023-11-21T03:21:24;10.50;98.90
65046;DHT22;54657;52.022;5.534;2023-11-21T03:23:50;10.50;98.90
65046;DHT22;54657;52.022;5.534;2023-11-21T03:26:15;10.50;98.90
65046;DHT22;54657;52.022;5.534;2023-11-21T03:28:42;10.60;98.80
65046;DHT22;54657;52.022;5.534;2023-11-21T03:31:07;10.60;98.80
65046;DHT22;54657;52.022;5.534;2023-11-21T03:33:34;10.70;98.80
65046;DHT22;54657;52.022;5.534;2023-11-21T03:36:00;10.70;98.80
65046;DHT22;54657;52.022;5.534;2023-11-21T03:38:26;10.70;98.80
65046;DHT22;54657;52.022;5.534;2023-11-21T03:40:51;10.70;98.90
65046;DHT22;54657;52.022;5.534;2023-11-21T03:43:17;10.70;98.90
65046;DHT22;54657;52.022;5.534;2023-11-21T03:45:42;10.70;98.90
65046;DHT22;54657;52.022;5.534;2023-11-21T03:48:08;10.70;99.00
65046;DHT22;54657;52.022;5.534;2023-11-21T03:50:34;10.70;99.00
65046;DHT22;54657;52.022;5.534;2023-11-21T03:53:00;10.50;99.30
65046;DHT22;54657;52.022;5.534;2023-11-21T03:55:25;10.50;99.40
65046;DHT22;54657;52.022;5.534;2023-11-21T03:57:52;10.60;99.40
65046;DHT22;54657;52.022;5.534;2023-11-21T04:00:18;10.60;99.30
65046;DHT22;54657;52.022;5.534;2023-11-21T04:02:45;10.70;99.30
65046;DHT22;54657;52.022;5.534;2023-11-21T04:05:11;10.70;99.30
65046;DHT22;54657;52.022;5.534;2023-11-21T04:07:37;10.70;99.20
65046;DHT22;54657;52.022;5.534;2023-11-21T04:10:04;10.80;99.20
65046;DHT22;54657;52.022;5.534;2023-11-21T04:12:34;10.80;99.20
65046;DHT22;54657;52.022;5.534;2023-11-21T04:15:00;10.90;99.10
65046;DHT22;54657;52.022;5.534;2023-11-21T04:17:25;10.90;99.00
65046;DHT22;54657;52.022;5.534;2023-11-21T04:19:51;10.90;99.00
65046;DHT22;54657;52.022;5.534;2023-11-21T04:22:16;11.00;99.00
65046;DHT22;54657;52.022;5.534;2023-11-21T04:24:42;10.90;99.00
65046;DHT22;54657;52.022;5.534;2023-11-21T04:27:07;10.90;99.00
65046;DHT22;54657;52.022;5.534;2023-11-21T04:29:33;10.90;99.10
65046;DHT22;54657;52.022;5.534;2023-11-21T04:31:59;10.90;99.10
65046;DHT22;54657;52.022;5.534;2023-11-21T04:34:24;10.90;99.10
65046;DHT22;54657;52.022;5.534;2023-11-21T04:36:50;10.90;99.20
65046;DHT22;54657;52.022;5.534;2023-11-21T04:39:15;10.90;99.30
65046;DHT22;54657;52.022;5.534;2023-11-21T04:41:41;10.90;99.40
65046;DHT22;54657;52.022;5.534;2023-11-21T04:44:07;10.90;99.40
65046;DHT22;54657;52.022;5.534;2023-11-21T04:46:33;10.90;99.30
65046;DHT22;54657;52.022;5.534;2023-11-21T04:48:59;11.00;99.30
65046;DHT22;54657;52.022;5.534;2023-11-21T04:51:24;10.90;99.30
65046;DHT22;54657;52.022;5.534;2023-11-21T04:53:50;11.00;99.30
65046;DHT22;54657;52.022;5.534;2023-11-21T04:56:15;11.00;99.30
65046;DHT22;54657;52.022;5.534;2023-11-21T04:58:44;11.00;99.30
65046;DHT22;54657;52.022;5.534;2023-11-21T05:01:09;11.00;99.30
65046;DHT22;54657;52.022;5.534;2023-11-21T05:03:35;11.00;99.30
65046;DHT22;54657;52.022;5.534;2023-11-21T05:06:01;11.10;99.30
65046;DHT22;54657;52.022;5.534;2023-11-21T05:08:26;11.10;99.30
65046;DHT22;54657;52.022;5.534;2023-11-21T05:10:52;11.10;99.30
65046;DHT22;54657;52.022;5.534;2023-11-21T05:13:19;11.10;99.20
65046;DHT22;54657;52.022;5.534;2023-11-21T05:15:45;11.10;99.20
65046;DHT22;54657;52.022;5.534;2023-11-21T05:18:11;11.20;99.20
65046;DHT22;54657;52.022;5.534;2023-11-21T05:20:39;11.20;99.20
65046;DHT22;54657;52.022;5.534;2023-11-21T05:23:04;11.20;99.20
65046;DHT22;54657;52.022;5.534;2023-11-21T05:25:30;11.20;99.20
65046;DHT22;54657;52.022;5.534;2023-11-21T05:27:56;11.20;99.30
65046;DHT22;54657;52.022;5.534;2023-11-21T05:30:21;11.20;99.20
65046;DHT22;54657;52.022;5.534;2023-11-21T05:32:47;11.20;99.20
65046;DHT22;54657;52.022;5.534;2023-11-21T05:35:13;11.20;99.30
65046;DHT22;54657;52.022;5.534;2023-11-21T05:37:41;11.20;99.30
65046;DHT22;54657;52.022;5.534;2023-11-21T05:40:08;11.20;99.40
65046;DHT22;54657;52.022;5.534;2023-11-21T05:42:35;11.20;99.40
65046;DHT22;54657;52.022;5.534;2023-11-21T05:45:01;11.20;99.40
65046;DHT22;54657;52.022;5.534;2023-11-21T05:47:44;11.20;99.40
65046;DHT22;54657;52.022;5.534;2023-11-21T05:50:12;11.20;99.50
65046;DHT22;54657;52.022;5.534;2023-11-21T05:52:40;11.10;99.60
65046;DHT22;54657;52.022;5.534;2023-11-21T05:55:06;11.20;99.60
65046;DHT22;54657;52.022;5.534;2023-11-21T05:57:36;11.20;99.60
65046;DHT22;54657;52.022;5.534;2023-11-21T06:00:06;11.30;99.50
65046;DHT22;54657;52.022;5.534;2023-11-21T06:02:48;11.30;99.60
65046;DHT22;54657;52.022;5.534;2023-11-21T06:05:17;11.20;99.60
65046;DHT22;54657;52.022;5.534;2023-11-21T06:07:44;11.30;99.60
65046;DHT22;54657;52.022;5.534;2023-11-21T06:10:10;11.30;99.60
65046;DHT22;54657;52.022;5.534;2023-11-21T06:12:38;11.30;99.50
65046;DHT22;54657;52.022;5.534;2023-11-21T06:15:06;11.40;99.50
65046;DHT22;54657;52.022;5.534;2023-11-21T06:17:35;11.40;99.50
65046;DHT22;54657;52.022;5.534;2023-11-21T06:20:05;11.40;99.60
65046;DHT22;54657;52.022;5.534;2023-11-21T06:22:35;11.30;99.70
65046;DHT22;54657;52.022;5.534;2023-11-21T06:25:01;11.30;99.90
65046;DHT22;54657;52.022;5.534;2023-11-21T06:27:27;11.30;99.90
65046;DHT22;54657;52.022;5.534;2023-11-21T06:29:53;11.30;99.80
65046;DHT22;54657;52.022;5.534;2023-11-21T06:32:18;11.30;99.80
65046;DHT22;54657;52.022;5.534;2023-11-21T06:34:45;11.40;99.70
65046;DHT22;54657;52.022;5.534;2023-11-21T06:37:11;11.40;99.70
65046;DHT22;54657;52.022;5.534;2023-11-21T06:39:37;11.40;99.70
65046;DHT22;54657;52.022;5.534;2023-11-21T06:42:03;11.40;99.70
65046;DHT22;54657;52.022;5.534;2023-11-21T06:44:29;11.40;99.70
65046;DHT22;54657;52.022;5.534;2023-11-21T06:46:55;11.40;99.70
65046;DHT22;54657;52.022;5.534;2023-11-21T06:49:20;11.50;99.80
65046;DHT22;54657;52.022;5.534;2023-11-21T06:51:46;11.40;99.70
65046;DHT22;54657;52.022;5.534;2023-11-21T06:54:12;11.50;99.80
65046;DHT22;54657;52.022;5.534;2023-11-21T06:56:37;11.50;99.80
65046;DHT22;54657;52.022;5.534;2023-11-21T06:59:04;11.40;99.70
65046;DHT22;54657;52.022;5.534;2023-11-21T07:01:31;11.50;99.80
65046;DHT22;54657;52.022;5.534;2023-11-21T07:03:59;11.50;99.80
65046;DHT22;54657;52.022;5.534;2023-11-21T07:06:25;11.40;99.80
65046;DHT22;54657;52.022;5.534;2023-11-21T07:08:50;11.40;99.90
65046;DHT22;54657;52.022;5.534;2023-11-21T07:11:16;11.50;99.90
65046;DHT22;54657;52.022;5.534;2023-11-21T07:13:42;11.50;99.90
65046;DHT22;54657;52.022;5.534;2023-11-21T07:16:07;11.50;99.90
65046;DHT22;54657;52.022;5.534;2023-11-21T07:18:33;11.50;99.90
65046;DHT22;54657;52.022;5.534;2023-11-21T07:20:59;11.50;99.90
65046;DHT22;54657;52.022;5.534;2023-11-21T07:23:24;11.50;99.90
65046;DHT22;54657;52.022;5.534;2023-11-21T07:25:50;11.50;99.90
65046;DHT22;54657;52.022;5.534;2023-11-21T07:28:15;11.60;99.90
65046;DHT22;54657;52.022;5.534;2023-11-21T07:30:41;11.50;99.90
65046;DHT22;54657;52.022;5.534;2023-11-21T07:33:08;11.60;99.90
65046;DHT22;54657;52.022;5.534;2023-11-21T07:35:33;11.60;99.90
65046;DHT22;54657;52.022;5.534;2023-11-21T07:37:59;11.60;99.90
65046;DHT22;54657;52.022;5.534;2023-11-21T07:40:25;11.60;99.90
65046;DHT22;54657;52.022;5.534;2023-11-21T07:42:50;11.60;99.90
65046;DHT22;54657;52.022;5.534;2023-11-21T07:45:16;11.60;99.90
65046;DHT22;54657;52.022;5.534;2023-11-21T07:47:42;11.60;99.90
65046;DHT22;54657;52.022;5.534;2023-11-21T07:50:08;11.60;99.90
65046;DHT22;54657;52.022;5.534;2023-11-21T07:52:34;11.60;99.90
65046;DHT22;54657;52.022;5.534;2023-11-21T07:54:59;11.70;99.90
65046;DHT22;54657;52.022;5.534;2023-11-21T07:57:25;11.70;99.90
65046;DHT22;54657;52.022;5.534;2023-11-21T07:59:51;11.70;99.90
65046;DHT22;54657;52.022;5.534;2023-11-21T08:02:19;11.70;99.90
65046;DHT22;54657;52.022;5.534;2023-11-21T08:04:44;11.70;99.90
65046;DHT22;54657;52.022;5.534;2023-11-21T08:07:10;11.70;99.90
65046;DHT22;54657;52.022;5.534;2023-11-21T08:09:36;11.70;99.90
65046;DHT22;54657;52.022;5.534;2023-11-21T08:12:02;11.70;99.90
65046;DHT22;54657;52.022;5.534;2023-11-21T08:14:28;11.70;99.90
65046;DHT22;54657;52.022;5.534;2023-11-21T08:16:53;11.80;99.90
65046;DHT22;54657;52.022;5.534;2023-11-21T08:19:23;11.80;99.90
65046;DHT22;54657;52.022;5.534;2023-11-21T08:21:51;11.80;99.90
65046;DHT22;54657;52.022;5.534;2023-11-21T08:24:16;11.70;99.90
65046;DHT22;54657;52.022;5.534;2023-11-21T08:26:42;11.80;99.90
65046;DHT22;54657;52.022;5.534;2023-11-21T08:29:08;11.80;99.90
65046;DHT22;54657;52.022;5.534;2023-11-21T08:31:34;11.80;99.90
65046;DHT22;54657;52.022;5.534;2023-11-21T08:33:59;11.80;99.90
65046;DHT22;54657;52.022;5.534;2023-11-21T08:36:28;11.70;99.90
65046;DHT22;54657;52.022;5.534;2023-11-21T08:38:53;11.80;99.90
65046;DHT22;54657;52.022;5.534;2023-11-21T08:41:20;11.80;99.90
65046;DHT22;54657;52.022;5.534;2023-11-21T08:43:48;11.80;99.90
65046;DHT22;54657;52.022;5.534;2023-11-21T08:46:14;11.80;99.90
65046;DHT22;54657;52.022;5.534;2023-11-21T08:48:40;11.80;99.90
65046;DHT22;54657;52.022;5.534;2023-11-21T08:51:06;11.70;99.90
65046;DHT22;54657;52.022;5.534;2023-11-21T08:53:32;11.80;99.90
65046;DHT22;54657;52.022;5.534;2023-11-21T08:55:58;11.70;99.90
65046;DHT22;54657;52.022;5.534;2023-11-21T08:58:24;11.60;99.90
65046;DHT22;54657;52.022;5.534;2023-11-21T09:00:49;11.70;99.90
65046;DHT22;54657;52.022;5.534;2023-11-21T09:03:15;11.60;99.90
65046;DHT22;54657;52.022;5.534;2023-11-21T09:05:40;11.60;99.90
65046;DHT22;54657;52.022;5.534;2023-11-21T09:08:06;11.60;99.90
65046;DHT22;54657;52.022;5.534;2023-11-21T09:10:33;11.50;99.90
65046;DHT22;54657;52.022;5.534;2023-11-21T09:13:01;11.50;99.90
65046;DHT22;54657;52.022;5.534;2023-11-21T09:15:27;11.50;99.90
65046;DHT22;54657;52.022;5.534;2023-11-21T09:17:53;11.40;99.90
65046;DHT22;54657;52.022;5.534;2023-11-21T09:20:19;11.30;99.90
65046;DHT22;54657;52.022;5.534;2023-11-21T09:22:48;11.40;99.90
65046;DHT22;54657;52.022;5.534;2023-11-21T09:25:14;11.40;99.90
65046;DHT22;54657;52.022;5.534;2023-11-21T09:27:40;11.40;99.90
65046;DHT22;54657;52.022;5.534;2023-11-21T09:30:06;11.50;99.90
65046;DHT22;54657;52.022;5.534;2023-11-21T09:32:35;11.50;99.90
65046;DHT22;54657;52.022;5.534;2023-11-21T09:35:03;11.50;99.90
65046;DHT22;54657;52.022;5.534;2023-11-21T09:37:28;11.60;99.90
65046;DHT22;54657;52.022;5.534;2023-11-21T09:39:54;11.60;99.90
65046;DHT22;54657;52.022;5.534;2023-11-21T09:42:43;11.60;99.90
65046;DHT22;54657;52.022;5.534;2023-11-21T09:45:27;11.70;99.90
65046;DHT22;54657;52.022;5.534;2023-11-21T09:47:57;11.60;99.90
65046;DHT22;54657;52.022;5.534;2023-11-21T09:50:23;11.60;99.90
65046;DHT22;54657;52.022;5.534;2023-11-21T09:55:43;11.60;99.90
65046;DHT22;54657;52.022;5.534;2023-11-21T09:58:10;11.50;99.90
65046;DHT22;54657;52.022;5.534;2023-11-21T10:00:48;11.50;99.90
65046;DHT22;54657;52.022;5.534;2023-11-21T10:03:14;11.50;99.90
65046;DHT22;54657;52.022;5.534;2023-11-21T10:05:42;11.50;99.90
65046;DHT22;54657;52.022;5.534;2023-11-21T10:08:09;11.50;99.90
65046;DHT22;54657;52.022;5.534;2023-11-21T10:10:37;11.50;99.90
65046;DHT22;54657;52.022;5.534;2023-11-21T10:13:04;11.50;99.90
65046;DHT22;54657;52.022;5.534;2023-11-21T10:15:34;11.40;99.90
65046;DHT22;54657;52.022;5.534;2023-11-21T10:18:04;11.40;99.90
65046;DHT22;54657;52.022;5.534;2023-11-21T10:20:34;11.50;99.90
65046;DHT22;54657;52.022;5.534;2023-11-21T10:23:00;11.50;99.90
65046;DHT22;54657;52.022;5.534;2023-11-21T10:25:30;11.50;99.90
65046;DHT22;54657;52.022;5.534;2023-11-21T10:28:01;11.50;99.90
65046;DHT22;54657;52.022;5.534;2023-11-21T10:30:37;11.50;99.90
65046;DHT22;54657;52.022;5.534;2023-11-21T10:33:04;11.50;99.90
65046;DHT22;54657;52.022;5.534;2023-11-21T10:35:42;11.50;99.90
65046;DHT22;54657;52.022;5.534;2023-11-21T10:38:15;11.40;99.90
65046;DHT22;54657;52.022;5.534;2023-11-21T10:40:41;11.40;99.90
65046;DHT22;54657;52.022;5.534;2023-11-21T10:43:08;11.50;99.90
65046;DHT22;54657;52.022;5.534;2023-11-21T10:45:38;11.50;99.90
65046;DHT22;54657;52.022;5.534;2023-11-21T10:48:08;11.50;99.90
65046;DHT22;54657;52.022;5.534;2023-11-21T10:50:35;11.50;99.90
65046;DHT22;54657;52.022;5.534;2023-11-21T10:53:02;11.60;99.90
65046;DHT22;54657;52.022;5.534;2023-11-21T10:55:29;11.50;99.90
65046;DHT22;54657;52.022;5.534;2023-11-21T10:57:59;11.50;99.90
65046;DHT22;54657;52.022;5.534;2023-11-21T11:00:27;11.50;99.90
65046;DHT22;54657;52.022;5.534;2023-11-21T11:02:53;11.50;99.90
65046;DHT22;54657;52.022;5.534;2023-11-21T11:05:27;11.50;99.90
65046;DHT22;54657;52.022;5.534;2023-11-21T11:08:04;11.50;99.90
65046;DHT22;54657;52.022;5.534;2023-11-21T11:10:30;11.50;99.90
65046;DHT22;54657;52.022;5.534;2023-11-21T11:12:56;11.50;99.90
65046;DHT22;54657;52.022;5.534;2023-11-21T11:15:26;11.50;99.90
65046;DHT22;54657;52.022;5.534;2023-11-21T11:17:52;11.50;99.90
65046;DHT22;54657;52.022;5.534;2023-11-21T11:20:24;11.40;99.90
65046;DHT22;54657;52.022;5.534;2023-11-21T11:23:05;11.40;99.90
65046;DHT22;54657;52.022;5.534;2023-11-21T11:25:53;11.50;99.90
65046;DHT22;54657;52.022;5.534;2023-11-21T11:33:57;11.40;99.90
65046;DHT22;54657;52.022;5.534;2023-11-21T11:36:35;11.50;99.90
65046;DHT22;54657;52.022;5.534;2023-11-21T11:39:03;11.40;99.90
65046;DHT22;54657;52.022;5.534;2023-11-21T11:41:31;11.40;99.90
65046;DHT22;54657;52.022;5.534;2023-11-21T11:44:01;11.40;99.90
65046;DHT22;54657;52.022;5.534;2023-11-21T11:46:43;11.40;99.90
65046;DHT22;54657;52.022;5.534;2023-11-21T11:49:23;11.50;99.90
65046;DHT22;54657;52.022;5.534;2023-11-21T11:54:55;11.40;99.90
65046;DHT22;54657;52.022;5.534;2023-11-21T11:57:24;11.40;99.90
65046;DHT22;54657;52.022;5.534;2023-11-21T12:00:18;11.40;99.90
65046;DHT22;54657;52.022;5.534;2023-11-21T12:02:55;11.50;99.90
65046;DHT22;54657;52.022;5.534;2023-11-21T12:05:23;11.50;99.90
65046;DHT22;54657;52.022;5.534;2023-11-21T12:07:56;11.50;99.90
65046;DHT22;54657;52.022;5.534;2023-11-21T12:10:30;11.50;99.90
65046;DHT22;54657;52.022;5.534;2023-11-21T12:15:22;11.50;99.90
65046;DHT22;54657;52.022;5.534;2023-11-21T12:17:48;11.50;99.90
65046;DHT22;54657;52.022;5.534;2023-11-21T12:20:17;11.50;99.90
65046;DHT22;54657;52.022;5.534;2023-11-21T12:25:19;11.60;99.90
65046;DHT22;54657;52.022;5.534;2023-11-21T12:27:46;11.60;99.90
65046;DHT22;54657;52.022;5.534;2023-11-21T12:30:13;11.60;99.90
65046;DHT22;54657;52.022;5.534;2023-11-21T12:32:49;11.70;99.90
65046;DHT22;54657;52.022;5.534;2023-11-21T12:35:17;11.60;99.90
65046;DHT22;54657;52.022;5.534;2023-11-21T12:37:45;11.60;99.90
65046;DHT22;54657;52.022;5.534;2023-11-21T12:40:12;11.70;99.90
65046;DHT22;54657;52.022;5.534;2023-11-21T12:42:45;11.70;99.90
65046;DHT22;54657;52.022;5.534;2023-11-21T12:48:02;11.70;99.90
65046;DHT22;54657;52.022;5.534;2023-11-21T12:50:33;11.70;99.90
65046;DHT22;54657;52.022;5.534;2023-11-21T12:53:01;11.60;99.90
65046;DHT22;54657;52.022;5.534;2023-11-21T12:55:30;11.60;99.90
65046;DHT22;54657;52.022;5.534;2023-11-21T12:57:56;11.50;99.90
65046;DHT22;54657;52.022;5.534;2023-11-21T13:00:32;11.40;99.90
65046;DHT22;54657;52.022;5.534;2023-11-21T13:02:59;11.40;99.90
65046;DHT22;54657;52.022;5.534;2023-11-21T13:05:29;11.40;99.90
65046;DHT22;54657;52.022;5.534;2023-11-21T13:07:57;11.40;99.90
65046;DHT22;54657;52.022;5.534;2023-11-21T13:10:25;11.40;99.90
65046;DHT22;54657;52.022;5.534;2023-11-21T13:13:00;11.40;99.90
65046;DHT22;54657;52.022;5.534;2023-11-21T13:15:29;11.40;99.90
65046;DHT22;54657;52.022;5.534;2023-11-21T13:17:57;11.40;99.90
65046;DHT22;54657;52.022;5.534;2023-11-21T13:20:23;11.40;99.90
65046;DHT22;54657;52.022;5.534;2023-11-21T13:22:51;11.40;99.90
65046;DHT22;54657;52.022;5.534;2023-11-21T13:25:26;11.40;99.90
65046;DHT22;54657;52.022;5.534;2023-11-21T13:28:02;11.40;99.90
65046;DHT22;54657;52.022;5.534;2023-11-21T13:30:28;11.40;99.90
65046;DHT22;54657;52.022;5.534;2023-11-21T13:32:59;11.50;99.90
65046;DHT22;54657;52.022;5.534;2023-11-21T13:35:28;11.50;99.90
65046;DHT22;54657;52.022;5.534;2023-11-21T13:38:08;11.50;99.90
65046;DHT22;54657;52.022;5.534;2023-11-21T13:40:35;11.50;99.90
65046;DHT22;54657;52.022;5.534;2023-11-21T13:43:16;11.50;99.90
65046;DHT22;54657;52.022;5.534;2023-11-21T13:45:45;11.50;99.90
65046;DHT22;54657;52.022;5.534;2023-11-21T13:48:12;11.50;99.90
65046;DHT22;54657;52.022;5.534;2023-11-21T13:50:40;11.50;99.90
65046;DHT22;54657;52.022;5.534;2023-11-21T13:53:14;11.60;99.90
65046;DHT22;54657;52.022;5.534;2023-11-21T13:55:51;11.50;99.90
65046;DHT22;54657;52.022;5.534;2023-11-21T13:58:20;11.50;99.90
65046;DHT22;54657;52.022;5.534;2023-11-21T14:00:50;11.50;99.90
65046;DHT22;54657;52.022;5.534;2023-11-21T14:03:25;11.40;99.90
65046;DHT22;54657;52.022;5.534;2023-11-21T14:06:03;11.40;99.90
65046;DHT22;54657;52.022;5.534;2023-11-21T14:08:34;11.30;99.90
65046;DHT22;54657;52.022;5.534;2023-11-21T14:11:00;11.30;99.90
65046;DHT22;54657;52.022;5.534;2023-11-21T14:13:28;11.20;99.90
65046;DHT22;54657;52.022;5.534;2023-11-21T14:15:54;11.20;99.90
65046;DHT22;54657;52.022;5.534;2023-11-21T14:18:24;11.20;99.90
65046;DHT22;54657;52.022;5.534;2023-11-21T14:20:59;11.20;99.90
65046;DHT22;54657;52.022;5.534;2023-11-21T14:23:25;11.20;99.90
65046;DHT22;54657;52.022;5.534;2023-11-21T14:25:50;11.10;99.90
65046;DHT22;54657;52.022;5.534;2023-11-21T14:28:17;11.10;99.90
65046;DHT22;54657;52.022;5.534;2023-11-21T14:30:45;11.00;99.90
65046;DHT22;54657;52.022;5.534;2023-11-21T14:33:11;11.00;99.90
65046;DHT22;54657;52.022;5.534;2023-11-21T14:35:37;11.00;99.90
65046;DHT22;54657;52.022;5.534;2023-11-21T14:38:03;11.10;99.90
65046;DHT22;54657;52.022;5.534;2023-11-21T14:40:31;11.00;99.90
65046;DHT22;54657;52.022;5.534;2023-11-21T14:43:00;10.90;99.90
65046;DHT22;54657;52.022;5.534;2023-11-21T14:45:25;10.90;99.90
65046;DHT22;54657;52.022;5.534;2023-11-21T14:47:52;10.90;99.90
65046;DHT22;54657;52.022;5.534;2023-11-21T14:50:35;10.80;99.90
65046;DHT22;54657;52.022;5.534;2023-11-21T14:53:20;10.80;99.90
65046;DHT22;54657;52.022;5.534;2023-11-21T14:56:06;10.80;99.90
65046;DHT22;54657;52.022;5.534;2023-11-21T14:58:33;10.70;99.90
65046;DHT22;54657;52.022;5.534;2023-11-21T15:00:59;10.70;99.90
65046;DHT22;54657;52.022;5.534;2023-11-21T15:03:26;10.60;99.90
65046;DHT22;54657;52.022;5.534;2023-11-21T15:05:59;10.50;99.90
65046;DHT22;54657;52.022;5.534;2023-11-21T15:08:26;10.60;99.90
65046;DHT22;54657;52.022;5.534;2023-11-21T15:10:57;10.60;99.90
65046;DHT22;54657;52.022;5.534;2023-11-21T15:13:23;10.60;99.90
65046;DHT22;54657;52.022;5.534;2023-11-21T15:15:50;10.50;99.90
65046;DHT22;54657;52.022;5.534;2023-11-21T15:18:16;10.50;99.90
65046;DHT22;54657;52.022;5.534;2023-11-21T15:20:42;10.50;99.90
65046;DHT22;54657;52.022;5.534;2023-11-21T15:23:09;10.40;99.90
65046;DHT22;54657;52.022;5.534;2023-11-21T15:25:35;10.30;99.90
65046;DHT22;54657;52.022;5.534;2023-11-21T15:28:02;10.30;99.90
65046;DHT22;54657;52.022;5.534;2023-11-21T15:30:28;10.30;99.90
65046;DHT22;54657;52.022;5.534;2023-11-21T15:32:59;10.40;99.90
65046;DHT22;54657;52.022;5.534;2023-11-21T15:35:25;10.40;99.90
65046;DHT22;54657;52.022;5.534;2023-11-21T15:37:53;10.40;99.90
65046;DHT22;54657;52.022;5.534;2023-11-21T15:40:19;10.40;99.90
65046;DHT22;54657;52.022;5.534;2023-11-21T15:42:45;10.40;99.90
65046;DHT22;54657;52.022;5.534;2023-11-21T15:45:11;10.40;99.90
65046;DHT22;54657;52.022;5.534;2023-11-21T15:47:37;10.30;99.90
65046;DHT22;54657;52.022;5.534;2023-11-21T15:50:03;10.20;99.90
65046;DHT22;54657;52.022;5.534;2023-11-21T15:52:33;10.20;99.90
65046;DHT22;54657;52.022;5.534;2023-11-21T15:54:59;10.20;99.90